NOAA Web Site Link Tides and Currents Home Page Transparent placeholder image

PORTS® Data Listing: 8545240 Philadelphia, PA

CO-OPS RAW PORTS DATA

************************      PRELIMINARY DATA      ************************** 

     THIS RAW DATA HAS NOT BEEN SUBJECT TO THE NATIONAL OCEAN SERVICE'S        
     QUALITY CONTROL OR QUALITY ASSURANCE PROCEDURES AND DOES NOT MEET         
     THE CRITERIA AND STANDARDS OF OFFICIAL NATIONAL OCEAN SERVICE             
     DATA.  IT IS RELEASED FOR LIMITED PUBLIC USE AS PRELIMINARY DATA TO       
     BE USED ONLY WITH APPROPRIATE CAUTION.                                    

************************      PRELIMINARY DATA      ************************** 


       CD   -   Calendar date
       T    -   Time
       TZ   -   Timezone
       PW   -   Predicted water level (feet above MLLW)
       OW   -   Observed water level (feet above MLLW)
       WS   -   Wind speed (knots)
       WD   -   Wind direction (degrees true)
       WG   -   Wind gust (knots)
       AT   -   Air temperature (degrees farenheit)
       WT   -   Water temperature (degrees farenheit)
       AP   -   Air pressure (millibars)
       SA   -   Salinty (PSU - Practical Salinity Units)
       SG   -   Specific gravity
       RH   -   Relative humidity
       AG   -   Air gap (feet)
       VI   -   Visibility (nautical miles)

       ** NOTE **
       A variable that has its data fields filled with "9"s, indicates that
       data was not collected for that sample period.
       **********


STATION NAME: Philadelphia (8545240)
****************************************************************************************************
    CD       T    TZ    PW     OW    WS   WD   WG    AT    WT    AP    SA    SG     RH    AG   VI
****************************************************************************************************
2018/08/18 01:48 EDT    0.76   1.74 -999 -999 -999  77.0  74.7 1013.2 -9.9 -9.999 -99.9 -99.99 -9.99
2018/08/18 01:54 EDT    0.69   1.65 -999 -999 -999  76.8  74.7 1013.1 -9.9 -9.999 -99.9 -99.99 -9.99
2018/08/18 02:00 EDT    0.63   1.56 -999 -999 -999  76.5  74.7 1013.0 -9.9 -9.999 -99.9 -99.99 -9.99
2018/08/18 02:06 EDT    0.59   1.48 -999 -999 -999  76.3  74.7 1013.0 -9.9 -9.999 -99.9 -99.99 -9.99
2018/08/18 02:12 EDT    0.56   1.42 -999 -999 -999  75.9  74.7 1013.0 -9.9 -9.999 -99.9 -99.99 -9.99
2018/08/18 02:18 EDT    0.54   1.37 -999 -999 -999  75.9  74.7 1013.0 -9.9 -9.999 -99.9 -99.99 -9.99
2018/08/18 02:24 EDT    0.54   1.31 -999 -999 -999  75.9  74.7 1012.7 -9.9 -9.999 -99.9 -99.99 -9.99
2018/08/18 02:30 EDT    0.56   1.28 -999 -999 -999  75.7  74.7 1012.5 -9.9 -9.999 -99.9 -99.99 -9.99
2018/08/18 02:36 EDT    0.59   1.23 -999 -999 -999  75.4  74.7 1012.5 -9.9 -9.999 -99.9 -99.99 -9.99
2018/08/18 02:42 EDT    0.63   1.19 -999 -999 -999  75.4  74.7 1012.4 -9.9 -9.999 -99.9 -99.99 -9.99
2018/08/18 02:48 EDT    0.69   1.18 -999 -999 -999  75.4  74.7 1012.4 -9.9 -9.999 -99.9 -99.99 -9.99
2018/08/18 02:54 EDT    0.76   1.16 -999 -999 -999  75.4  74.7 1012.2 -9.9 -9.999 -99.9 -99.99 -9.99
2018/08/18 03:00 EDT    0.85   1.18 -999 -999 -999  75.4  74.5 1012.3 -9.9 -9.999 -99.9 -99.99 -9.99
2018/08/18 03:06 EDT    0.95   1.25 -999 -999 -999  75.4  74.5 1012.1 -9.9 -9.999 -99.9 -99.99 -9.99
2018/08/18 03:12 EDT    1.06   1.34 -999 -999 -999  75.2  74.5 1012.0 -9.9 -9.999 -99.9 -99.99 -9.99
2018/08/18 03:18 EDT    1.18   1.48 -999 -999 -999  75.0  74.5 1011.9 -9.9 -9.999 -99.9 -99.99 -9.99
2018/08/18 03:24 EDT    1.31   1.66 -999 -999 -999  74.8  74.5 1011.9 -9.9 -9.999 -99.9 -99.99 -9.99
2018/08/18 03:30 EDT    1.45   1.86 -999 -999 -999  74.8  74.5 1011.8 -9.9 -9.999 -99.9 -99.99 -9.99
2018/08/18 03:36 EDT    1.60   2.08 -999 -999 -999  74.7  74.5 1011.8 -9.9 -9.999 -99.9 -99.99 -9.99
2018/08/18 03:42 EDT    1.74   2.29 -999 -999 -999  74.7  74.5 1011.8 -9.9 -9.999 -99.9 -99.99 -9.99
2018/08/18 03:48 EDT    1.90   2.49 -999 -999 -999  74.5  74.5 1011.8 -9.9 -9.999 -99.9 -99.99 -9.99
2018/08/18 03:54 EDT    2.05   2.69 -999 -999 -999  74.5  74.5 1011.7 -9.9 -9.999 -99.9 -99.99 -9.99
2018/08/18 04:00 EDT    2.20   2.90 -999 -999 -999  74.5  74.3 1011.8 -9.9 -9.999 -99.9 -99.99 -9.99
2018/08/18 04:06 EDT    2.36   3.10 -999 -999 -999  74.5  74.3 1011.8 -9.9 -9.999 -99.9 -99.99 -9.99
2018/08/18 04:12 EDT    2.51   3.30 -999 -999 -999  74.3  74.3 1011.8 -9.9 -9.999 -99.9 -99.99 -9.99
2018/08/18 04:18 EDT    2.66   3.48 -999 -999 -999  74.3  74.3 1012.0 -9.9 -9.999 -99.9 -99.99 -9.99
2018/08/18 04:24 EDT    2.81   3.65 -999 -999 -999  74.3  74.3 1012.0 -9.9 -9.999 -99.9 -99.99 -9.99
2018/08/18 04:30 EDT    2.95   3.82 -999 -999 -999  74.1  74.3 1012.0 -9.9 -9.999 -99.9 -99.99 -9.99
2018/08/18 04:36 EDT    3.09   3.98 -999 -999 -999  74.1  74.3 1012.1 -9.9 -9.999 -99.9 -99.99 -9.99
2018/08/18 04:42 EDT    3.23   4.13 -999 -999 -999  74.5  74.3 1012.0 -9.9 -9.999 -99.9 -99.99 -9.99
2018/08/18 04:48 EDT    3.36   4.27 -999 -999 -999  74.3  74.1 1012.2 -9.9 -9.999 -99.9 -99.99 -9.99
2018/08/18 04:54 EDT    3.49   4.41 -999 -999 -999  74.1  74.1 1012.2 -9.9 -9.999 -99.9 -99.99 -9.99
2018/08/18 05:00 EDT    3.61   4.54 -999 -999 -999  74.1  74.1 1012.2 -9.9 -9.999 -99.9 -99.99 -9.99
2018/08/18 05:06 EDT    3.74   4.67 -999 -999 -999  74.1  74.1 1012.1 -9.9 -9.999 -99.9 -99.99 -9.99
2018/08/18 05:12 EDT    3.86   4.80 -999 -999 -999  74.1  74.1 1012.0 -9.9 -9.999 -99.9 -99.99 -9.99
2018/08/18 05:18 EDT    3.97   4.92 -999 -999 -999  74.1  74.1 1012.0 -9.9 -9.999 -99.9 -99.99 -9.99
2018/08/18 05:24 EDT    4.09   5.03 -999 -999 -999  74.3  74.1 1012.0 -9.9 -9.999 -99.9 -99.99 -9.99
2018/08/18 05:30 EDT    4.21   5.14 -999 -999 -999  74.3  74.1 1011.9 -9.9 -9.999 -99.9 -99.99 -9.99
2018/08/18 05:36 EDT    4.32   5.26 -999 -999 -999  74.1  74.1 1011.8 -9.9 -9.999 -99.9 -99.99 -9.99
2018/08/18 05:42 EDT    4.44   5.38 -999 -999 -999  74.3  73.9 1011.7 -9.9 -9.999 -99.9 -99.99 -9.99
2018/08/18 05:48 EDT    4.55   5.49 -999 -999 -999  74.3  73.9 1011.7 -9.9 -9.999 -99.9 -99.99 -9.99
2018/08/18 05:54 EDT    4.67   5.60 -999 -999 -999  74.3  73.9 1011.7 -9.9 -9.999 -99.9 -99.99 -9.99
2018/08/18 06:00 EDT    4.78   5.70 -999 -999 -999  74.3  73.9 1011.6 -9.9 -9.999 -99.9 -99.99 -9.99
2018/08/18 06:06 EDT    4.90   5.80 -999 -999 -999  74.3  73.9 1011.6 -9.9 -9.999 -99.9 -99.99 -9.99
2018/08/18 06:12 EDT    5.02   5.90 -999 -999 -999  74.3  73.9 1011.6 -9.9 -9.999 -99.9 -99.99 -9.99
2018/08/18 06:18 EDT    5.13   5.99 -999 -999 -999  74.5  73.9 1011.7 -9.9 -9.999 -99.9 -99.99 -9.99
2018/08/18 06:24 EDT    5.25   6.07 -999 -999 -999  74.5  73.9 1011.5 -9.9 -9.999 -99.9 -99.99 -9.99
2018/08/18 06:30 EDT    5.36   6.14 -999 -999 -999  74.7  73.9 1011.4 -9.9 -9.999 -99.9 -99.99 -9.99
2018/08/18 06:36 EDT    5.48   6.21 -999 -999 -999  74.5  73.8 1011.1 -9.9 -9.999 -99.9 -99.99 -9.99
2018/08/18 06:42 EDT    5.59   6.28 -999 -999 -999  74.5  73.8 1011.1 -9.9 -9.999 -99.9 -99.99 -9.99
2018/08/18 06:48 EDT    5.69   6.33 -999 -999 -999  74.5  73.8 1011.3 -9.9 -9.999 -99.9 -99.99 -9.99
2018/08/18 06:54 EDT    5.79   6.39 -999 -999 -999  74.7  73.8 1011.4 -9.9 -9.999 -99.9 -99.99 -9.99
2018/08/18 07:00 EDT    5.89   6.44 -999 -999 -999  74.8  73.8 1011.4 -9.9 -9.999 -99.9 -99.99 -9.99
2018/08/18 07:06 EDT    5.98   6.50 -999 -999 -999  75.0  73.8 1011.4 -9.9 -9.999 -99.9 -99.99 -9.99
2018/08/18 07:12 EDT    6.06   6.56 -999 -999 -999  75.0  73.8 1011.5 -9.9 -9.999 -99.9 -99.99 -9.99
2018/08/18 07:18 EDT    6.13   6.60 -999 -999 -999  75.0  73.8 1011.5 -9.9 -9.999 -99.9 -99.99 -9.99
2018/08/18 07:24 EDT    6.19   6.66 -999 -999 -999  75.2  73.8 1011.5 -9.9 -9.999 -99.9 -99.99 -9.99
2018/08/18 07:30 EDT    6.25   6.71 -999 -999 -999  75.2  73.8 1011.5 -9.9 -9.999 -99.9 -99.99 -9.99
2018/08/18 07:36 EDT    6.29   6.76 -999 -999 -999  75.2  73.8 1011.5 -9.9 -9.999 -99.9 -99.99 -9.99
2018/08/18 07:42 EDT    6.33   6.80 -999 -999 -999  75.2  73.8 1011.5 -9.9 -9.999 -99.9 -99.99 -9.99
2018/08/18 07:48 EDT    6.35   6.83 -999 -999 -999  75.2  73.8 1011.5 -9.9 -9.999 -99.9 -99.99 -9.99
2018/08/18 07:54 EDT    6.36   6.84 -999 -999 -999  75.2  73.8 1011.5 -9.9 -9.999 -99.9 -99.99 -9.99
2018/08/18 08:00 EDT    6.36   6.84 -999 -999 -999  75.4  73.8 1011.6 -9.9 -9.999 -99.9 -99.99 -9.99
2018/08/18 08:06 EDT    6.35   6.82 -999 -999 -999  75.4  73.8 1011.7 -9.9 -9.999 -99.9 -99.99 -9.99
2018/08/18 08:12 EDT    6.33   6.79 -999 -999 -999  75.6  73.8 1011.5 -9.9 -9.999 -99.9 -99.99 -9.99
2018/08/18 08:18 EDT    6.30   6.75 -999 -999 -999  75.9  73.8 1011.5 -9.9 -9.999 -99.9 -99.99 -9.99
2018/08/18 08:24 EDT    6.27   6.69 -999 -999 -999  75.9  73.8 1011.4 -9.9 -9.999 -99.9 -99.99 -9.99
2018/08/18 08:30 EDT    6.22   6.63 -999 -999 -999  76.1  73.8 1011.3 -9.9 -9.999 -99.9 -99.99 -9.99
2018/08/18 08:36 EDT    6.16   6.56 -999 -999 -999  76.1  73.8 1011.3 -9.9 -9.999 -99.9 -99.99 -9.99
2018/08/18 08:42 EDT    6.10   6.45 -999 -999 -999  75.9  73.8 1011.3 -9.9 -9.999 -99.9 -99.99 -9.99
2018/08/18 08:48 EDT    6.03   6.38 -999 -999 -999  75.9  73.8 1011.3 -9.9 -9.999 -99.9 -99.99 -9.99
2018/08/18 08:54 EDT    5.96   6.30 -999 -999 -999  76.1  73.8 1011.3 -9.9 -9.999 -99.9 -99.99 -9.99
2018/08/18 09:00 EDT    5.87   6.22 -999 -999 -999  76.5  73.8 1011.3 -9.9 -9.999 -99.9 -99.99 -9.99
2018/08/18 09:06 EDT    5.79   6.13 -999 -999 -999  76.5  73.8 1011.3 -9.9 -9.999 -99.9 -99.99 -9.99
2018/08/18 09:12 EDT    5.70   6.03 -999 -999 -999  76.8  73.8 1011.3 -9.9 -9.999 -99.9 -99.99 -9.99
2018/08/18 09:18 EDT    5.61   5.92 -999 -999 -999  77.2  73.8 1011.2 -9.9 -9.999 -99.9 -99.99 -9.99
2018/08/18 09:24 EDT    5.51   5.81 -999 -999 -999  77.7  73.8 1011.1 -9.9 -9.999 -99.9 -99.99 -9.99
2018/08/18 09:30 EDT    5.41   5.70 -999 -999 -999  78.1  73.8 1011.1 -9.9 -9.999 -99.9 -99.99 -9.99
2018/08/18 09:36 EDT    5.31   5.58 -999 -999 -999  78.3  73.8 1011.0 -9.9 -9.999 -99.9 -99.99 -9.99
2018/08/18 09:42 EDT    5.21   5.46 -999 -999 -999  78.8  73.8 1011.1 -9.9 -9.999 -99.9 -99.99 -9.99
2018/08/18 09:48 EDT    5.11   5.35 -999 -999 -999  79.3  73.8 1011.1 -9.9 -9.999 -99.9 -99.99 -9.99
2018/08/18 09:54 EDT    5.00   5.23 -999 -999 -999  79.7  73.8 1011.1 -9.9 -9.999 -99.9 -99.99 -9.99
2018/08/18 10:00 EDT    4.90   5.14 -999 -999 -999  80.2  73.8 1011.0 -9.9 -9.999 -99.9 -99.99 -9.99
2018/08/18 10:06 EDT    4.79   5.01 -999 -999 -999  81.1  73.9 1011.1 -9.9 -9.999 -99.9 -99.99 -9.99
2018/08/18 10:12 EDT    4.68   4.93 -999 -999 -999  82.2  73.9 1010.9 -9.9 -9.999 -99.9 -99.99 -9.99
2018/08/18 10:18 EDT    4.57   4.80 -999 -999 -999  82.6  73.9 1010.9 -9.9 -9.999 -99.9 -99.99 -9.99
2018/08/18 10:24 EDT    4.46   4.71 -999 -999 -999  84.0  73.9 1010.9 -9.9 -9.999 -99.9 -99.99 -9.99
2018/08/18 10:30 EDT    4.35   4.59 -999 -999 -999  84.4  73.9 1010.9 -9.9 -9.999 -99.9 -99.99 -9.99
2018/08/18 10:36 EDT    4.24   4.50 -999 -999 -999  83.8  73.9 1010.9 -9.9 -9.999 -99.9 -99.99 -9.99
2018/08/18 10:42 EDT    4.13   4.41 -999 -999 -999  83.7  73.9 1010.8 -9.9 -9.999 -99.9 -99.99 -9.99
2018/08/18 10:48 EDT    4.02   4.30 -999 -999 -999  84.6  73.9 1010.8 -9.9 -9.999 -99.9 -99.99 -9.99
2018/08/18 10:54 EDT    3.91   4.19 -999 -999 -999  84.9  73.9 1010.8 -9.9 -9.999 -99.9 -99.99 -9.99
2018/08/18 11:00 EDT    3.80   4.09 -999 -999 -999  86.2  73.9 1010.8 -9.9 -9.999 -99.9 -99.99 -9.99
2018/08/18 11:06 EDT    3.69   3.99 -999 -999 -999  87.1  73.9 1010.7 -9.9 -9.999 -99.9 -99.99 -9.99
2018/08/18 11:12 EDT    3.57   3.90 -999 -999 -999  87.3  73.9 1010.7 -9.9 -9.999 -99.9 -99.99 -9.99
2018/08/18 11:18 EDT    3.46   3.80 -999 -999 -999  87.3  73.9 1010.7 -9.9 -9.999 -99.9 -99.99 -9.99
2018/08/18 11:24 EDT    3.35   3.69 -999 -999 -999  87.6  73.9 1010.6 -9.9 -9.999 -99.9 -99.99 -9.99
2018/08/18 11:30 EDT    3.24   3.60 -999 -999 -999  87.8  73.9 1010.5 -9.9 -9.999 -99.9 -99.99 -9.99
2018/08/18 11:36 EDT    3.13   3.49 -999 -999 -999  88.5  74.1 1010.5 -9.9 -9.999 -99.9 -99.99 -9.99
2018/08/18 11:42 EDT    3.02   3.39 -999 -999 -999  88.9  74.1 1010.4 -9.9 -9.999 -99.9 -99.99 -9.99
2018/08/18 11:48 EDT    2.91   3.28 -999 -999 -999  88.7  74.1 1010.3 -9.9 -9.999 -99.9 -99.99 -9.99
2018/08/18 11:54 EDT    2.80   3.17 -999 -999 -999  89.4  74.1 1010.2 -9.9 -9.999 -99.9 -99.99 -9.99
2018/08/18 12:00 EDT    2.68   3.06 -999 -999 -999  89.1  74.1 1010.1 -9.9 -9.999 -99.9 -99.99 -9.99
2018/08/18 12:06 EDT    2.57   2.96 -999 -999 -999  89.6  74.1 1010.0 -9.9 -9.999 -99.9 -99.99 -9.99
2018/08/18 12:12 EDT    2.46   2.84 -999 -999 -999  88.7  74.1 1010.0 -9.9 -9.999 -99.9 -99.99 -9.99
2018/08/18 12:18 EDT    2.35   2.75 -999 -999 -999  88.9  74.1 1010.0 -9.9 -9.999 -99.9 -99.99 -9.99
2018/08/18 12:24 EDT    2.24   2.64 -999 -999 -999  88.7  74.1 1009.9 -9.9 -9.999 -99.9 -99.99 -9.99
2018/08/18 12:30 EDT    2.13   2.54 -999 -999 -999  88.7  74.1 1009.8 -9.9 -9.999 -99.9 -99.99 -9.99
2018/08/18 12:36 EDT    2.02   2.44 -999 -999 -999  89.1  74.1 1009.8 -9.9 -9.999 -99.9 -99.99 -9.99
2018/08/18 12:42 EDT    1.90   2.34 -999 -999 -999  88.7  74.1 1009.7 -9.9 -9.999 -99.9 -99.99 -9.99
2018/08/18 12:48 EDT    1.79   2.24 -999 -999 -999  89.6  74.1 1009.7 -9.9 -9.999 -99.9 -99.99 -9.99
2018/08/18 12:54 EDT    1.68   2.15 -999 -999 -999  89.1  74.1 1009.6 -9.9 -9.999 -99.9 -99.99 -9.99
2018/08/18 13:00 EDT    1.56   2.05 -999 -999 -999  89.1  74.1 1009.5 -9.9 -9.999 -99.9 -99.99 -9.99
2018/08/18 13:06 EDT    1.45   1.96 -999 -999 -999  90.0  74.1 1009.4 -9.9 -9.999 -99.9 -99.99 -9.99
2018/08/18 13:12 EDT    1.34   1.86 -999 -999 -999  90.7  74.1 1009.4 -9.9 -9.999 -99.9 -99.99 -9.99
2018/08/18 13:18 EDT    1.23   1.77 -999 -999 -999  89.1  74.1 1009.4 -9.9 -9.999 -99.9 -99.99 -9.99
2018/08/18 13:24 EDT    1.12   1.68 -999 -999 -999  88.9  74.1 1009.4 -9.9 -9.999 -99.9 -99.99 -9.99
2018/08/18 13:30 EDT    1.01   1.59 -999 -999 -999  88.5  74.1 1009.3 -9.9 -9.999 -99.9 -99.99 -9.99
2018/08/18 13:36 EDT    0.91   1.49 -999 -999 -999  88.5  74.1 1009.2 -9.9 -9.999 -99.9 -99.99 -9.99
2018/08/18 13:42 EDT    0.81   1.40 -999 -999 -999  89.4  74.1 1009.2 -9.9 -9.999 -99.9 -99.99 -9.99
2018/08/18 13:48 EDT    0.71   1.31 -999 -999 -999  89.2  74.1 1009.2 -9.9 -9.999 -99.9 -99.99 -9.99
2018/08/18 13:54 EDT    0.62   1.22 -999 -999 -999  89.2  74.1 1009.2 -9.9 -9.999 -99.9 -99.99 -9.99
2018/08/18 14:00 EDT    0.54   1.14 -999 -999 -999  89.2  74.1 1009.1 -9.9 -9.999 -99.9 -99.99 -9.99
2018/08/18 14:06 EDT    0.47   1.06 -999 -999 -999  90.9  74.1 1009.0 -9.9 -9.999 -99.9 -99.99 -9.99
2018/08/18 14:12 EDT    0.41   0.99 -999 -999 -999  91.8  74.1 1008.9 -9.9 -9.999 -99.9 -99.99 -9.99
2018/08/18 14:18 EDT    0.36   0.92 -999 -999 -999  90.3  74.1 1008.9 -9.9 -9.999 -99.9 -99.99 -9.99
2018/08/18 14:24 EDT    0.32   0.85 -999 -999 -999  89.8  74.1 1008.9 -9.9 -9.999 -99.9 -99.99 -9.99
2018/08/18 14:30 EDT    0.30   0.80 -999 -999 -999  90.0  74.1 1008.7 -9.9 -9.999 -99.9 -99.99 -9.99
2018/08/18 14:36 EDT    0.28   0.76 -999 -999 -999  90.1  74.1 1008.6 -9.9 -9.999 -99.9 -99.99 -9.99
2018/08/18 14:42 EDT    0.29   0.72 -999 -999 -999  90.1  74.1 1008.5 -9.9 -9.999 -99.9 -99.99 -9.99
2018/08/18 14:48 EDT    0.30   0.70 -999 -999 -999  91.6  74.1 1008.5 -9.9 -9.999 -99.9 -99.99 -9.99
2018/08/18 14:54 EDT    0.33   0.69 -999 -999 -999  91.2  74.1 1008.4 -9.9 -9.999 -99.9 -99.99 -9.99
2018/08/18 15:00 EDT    0.38   0.69 -999 -999 -999  92.1  74.1 1008.4 -9.9 -9.999 -99.9 -99.99 -9.99
2018/08/18 15:06 EDT    0.44   0.75 -999 -999 -999  90.9  74.1 1008.3 -9.9 -9.999 -99.9 -99.99 -9.99
2018/08/18 15:12 EDT    0.52   0.82 -999 -999 -999  90.3  74.1 1008.3 -9.9 -9.999 -99.9 -99.99 -9.99
2018/08/18 15:18 EDT    0.61   0.92 -999 -999 -999  90.0  74.3 1008.2 -9.9 -9.999 -99.9 -99.99 -9.99
2018/08/18 15:24 EDT    0.72   1.07 -999 -999 -999  90.1  74.1 1008.2 -9.9 -9.999 -99.9 -99.99 -9.99
2018/08/18 15:30 EDT    0.83   1.23 -999 -999 -999  90.0  74.3 1008.2 -9.9 -9.999 -99.9 -99.99 -9.99
2018/08/18 15:36 EDT    0.96   1.42 -999 -999 -999  90.1  74.3 1008.1 -9.9 -9.999 -99.9 -99.99 -9.99
2018/08/18 15:42 EDT    1.10   1.63 -999 -999 -999  89.4  74.1 1008.1 -9.9 -9.999 -99.9 -99.99 -9.99
2018/08/18 15:48 EDT    1.25   1.86 -999 -999 -999  90.0  74.1 1008.0 -9.9 -9.999 -99.9 -99.99 -9.99
2018/08/18 15:54 EDT    1.40   2.08 -999 -999 -999  89.6  74.1 1008.0 -9.9 -9.999 -99.9 -99.99 -9.99
2018/08/18 16:00 EDT    1.56   2.30 -999 -999 -999  89.1  74.1 1007.8 -9.9 -9.999 -99.9 -99.99 -9.99
2018/08/18 16:06 EDT    1.73   2.52 -999 -999 -999  88.5  74.1 1007.8 -9.9 -9.999 -99.9 -99.99 -9.99
2018/08/18 16:12 EDT    1.89   2.72 -999 -999 -999  88.5  74.1 1007.7 -9.9 -9.999 -99.9 -99.99 -9.99
2018/08/18 16:18 EDT    2.06   2.91 -999 -999 -999  88.5  74.1 1007.7 -9.9 -9.999 -99.9 -99.99 -9.99
2018/08/18 16:24 EDT    2.23   3.12 -999 -999 -999  88.3  74.1 1007.7 -9.9 -9.999 -99.9 -99.99 -9.99
2018/08/18 16:30 EDT    2.40   3.31 -999 -999 -999  88.3  74.1 1007.7 -9.9 -9.999 -99.9 -99.99 -9.99
2018/08/18 16:36 EDT    2.57   3.48 -999 -999 -999  88.0  74.1 1007.7 -9.9 -9.999 -99.9 -99.99 -9.99
2018/08/18 16:42 EDT    2.74   3.65 -999 -999 -999  87.8  74.1 1007.6 -9.9 -9.999 -99.9 -99.99 -9.99
2018/08/18 16:48 EDT    2.90   3.82 -999 -999 -999  87.6  74.1 1007.6 -9.9 -9.999 -99.9 -99.99 -9.99
2018/08/18 16:54 EDT    3.06   3.97 -999 -999 -999  87.3  74.1 1007.7 -9.9 -9.999 -99.9 -99.99 -9.99
2018/08/18 17:00 EDT    3.21   4.11 -999 -999 -999  86.9  74.1 1007.7 -9.9 -9.999 -99.9 -99.99 -9.99
2018/08/18 17:06 EDT    3.36   4.28 -999 -999 -999  83.1  74.1 1008.5 -9.9 -9.999 -99.9 -99.99 -9.99
2018/08/18 17:12 EDT    3.51   4.49 -999 -999 -999  76.6  74.1 1008.9 -9.9 -9.999 -99.9 -99.99 -9.99
2018/08/18 17:18 EDT    3.65   4.66 -999 -999 -999  75.0  74.1 1008.7 -9.9 -9.999 -99.9 -99.99 -9.99
2018/08/18 17:24 EDT    3.78   4.75 -999 -999 -999  74.7  74.1 1008.4 -9.9 -9.999 -99.9 -99.99 -9.99
2018/08/18 17:30 EDT    3.92   4.87 -999 -999 -999  74.3  74.1 1008.3 -9.9 -9.999 -99.9 -99.99 -9.99
2018/08/18 17:36 EDT    4.05   4.98 -999 -999 -999  74.1  74.1 1008.2 -9.9 -9.999 -99.9 -99.99 -9.99
2018/08/18 17:42 EDT    4.18   5.10 -999 -999 -999  74.3  74.1 1008.1 -9.9 -9.999 -99.9 -99.99 -9.99
2018/08/18 17:48 EDT    4.31   5.24 -999 -999 -999  74.8  74.1 1008.3 -9.9 -9.999 -99.9 -99.99 -9.99
2018/08/18 17:54 EDT    4.43   5.39 -999 -999 -999  74.7  74.1 1008.4 -9.9 -9.999 -99.9 -99.99 -9.99
2018/08/18 18:00 EDT    4.56   5.52 -999 -999 -999  74.7  74.1 1008.5 -9.9 -9.999 -99.9 -99.99 -9.99
2018/08/18 18:06 EDT    4.68   5.61 -999 -999 -999  74.7  74.1 1008.5 -9.9 -9.999 -99.9 -99.99 -9.99
2018/08/18 18:12 EDT    4.80   5.73 -999 -999 -999  74.5  74.1 1008.5 -9.9 -9.999 -99.9 -99.99 -9.99
2018/08/18 18:18 EDT    4.93   5.84 -999 -999 -999  74.5  74.1 1008.5 -9.9 -9.999 -99.9 -99.99 -9.99
2018/08/18 18:24 EDT    5.05   5.96 -999 -999 -999  74.1  74.1 1008.5 -9.9 -9.999 -99.9 -99.99 -9.99
2018/08/18 18:30 EDT    5.18   6.07 -999 -999 -999  73.9  74.1 1008.5 -9.9 -9.999 -99.9 -99.99 -9.99
2018/08/18 18:36 EDT    5.30   6.17 -999 -999 -999  74.1  74.1 1008.4 -9.9 -9.999 -99.9 -99.99 -9.99
2018/08/18 18:42 EDT    5.43   6.27 -999 -999 -999  73.6  74.1 1008.4 -9.9 -9.999 -99.9 -99.99 -9.99
2018/08/18 18:48 EDT    5.55   6.35 -999 -999 -999  74.3  74.1 1008.4 -9.9 -9.999 -99.9 -99.99 -9.99
2018/08/18 18:54 EDT    5.68   6.45 -999 -999 -999  74.3  74.1 1008.5 -9.9 -9.999 -99.9 -99.99 -9.99
2018/08/18 19:00 EDT    5.80   6.53 -999 -999 -999  74.1  74.1 1008.6 -9.9 -9.999 -99.9 -99.99 -9.99
2018/08/18 19:06 EDT    5.91   6.62 -999 -999 -999  74.3  74.1 1008.7 -9.9 -9.999 -99.9 -99.99 -9.99
2018/08/18 19:12 EDT    6.03   6.71 -999 -999 -999  74.1  74.1 1008.7 -9.9 -9.999 -99.9 -99.99 -9.99
2018/08/18 19:18 EDT    6.14   6.80 -999 -999 -999  74.3  74.1 1008.7 -9.9 -9.999 -99.9 -99.99 -9.99
2018/08/18 19:24 EDT    6.24   6.88 -999 -999 -999  74.3  74.1 1008.7 -9.9 -9.999 -99.9 -99.99 -9.99
2018/08/18 19:30 EDT    6.34   6.97 -999 -999 -999  74.3  74.1 1008.8 -9.9 -9.999 -99.9 -99.99 -9.99
2018/08/18 19:36 EDT    6.43   7.05 -999 -999 -999  73.8  74.1 1008.8 -9.9 -9.999 -99.9 -99.99 -9.99
2018/08/18 19:42 EDT    6.51 -99.99 -999 -999 -999 -99.9 -99.9 -999.9 -9.9 -9.999 -99.9 -99.99 -9.99
2018/08/18 19:48 EDT    6.59 -99.99 -999 -999 -999 -99.9 -99.9 -999.9 -9.9 -9.999 -99.9 -99.99 -9.99
2018/08/18 19:54 EDT    6.65 -99.99 -999 -999 -999 -99.9 -99.9 -999.9 -9.9 -9.999 -99.9 -99.99 -9.99
2018/08/18 20:00 EDT    6.71 -99.99 -999 -999 -999 -99.9 -99.9 -999.9 -9.9 -9.999 -99.9 -99.99 -9.99
2018/08/18 20:06 EDT    6.75 -99.99 -999 -999 -999 -99.9 -99.9 -999.9 -9.9 -9.999 -99.9 -99.99 -9.99
2018/08/18 20:12 EDT    6.78 -99.99 -999 -999 -999 -99.9 -99.9 -999.9 -9.9 -9.999 -99.9 -99.99 -9.99
2018/08/18 20:18 EDT    6.81 -99.99 -999 -999 -999 -99.9 -99.9 -999.9 -9.9 -9.999 -99.9 -99.99 -9.99
2018/08/18 20:24 EDT    6.82 -99.99 -999 -999 -999 -99.9 -99.9 -999.9 -9.9 -9.999 -99.9 -99.99 -9.99
2018/08/18 20:30 EDT    6.82 -99.99 -999 -999 -999 -99.9 -99.9 -999.9 -9.9 -9.999 -99.9 -99.99 -9.99
2018/08/18 20:36 EDT    6.81 -99.99 -999 -999 -999 -99.9 -99.9 -999.9 -9.9 -9.999 -99.9 -99.99 -9.99
2018/08/18 20:42 EDT    6.79 -99.99 -999 -999 -999 -99.9 -99.9 -999.9 -9.9 -9.999 -99.9 -99.99 -9.99
2018/08/18 20:48 EDT    6.76 -99.99 -999 -999 -999 -99.9 -99.9 -999.9 -9.9 -9.999 -99.9 -99.99 -9.99
2018/08/18 20:54 EDT    6.73 -99.99 -999 -999 -999 -99.9 -99.9 -999.9 -9.9 -9.999 -99.9 -99.99 -9.99
2018/08/18 21:00 EDT    6.68 -99.99 -999 -999 -999 -99.9 -99.9 -999.9 -9.9 -9.999 -99.9 -99.99 -9.99
2018/08/18 21:06 EDT    6.63 -99.99 -999 -999 -999 -99.9 -99.9 -999.9 -9.9 -9.999 -99.9 -99.99 -9.99
2018/08/18 21:12 EDT    6.57 -99.99 -999 -999 -999 -99.9 -99.9 -999.9 -9.9 -9.999 -99.9 -99.99 -9.99
2018/08/18 21:18 EDT    6.50 -99.99 -999 -999 -999 -99.9 -99.9 -999.9 -9.9 -9.999 -99.9 -99.99 -9.99
2018/08/18 21:24 EDT    6.43 -99.99 -999 -999 -999 -99.9 -99.9 -999.9 -9.9 -9.999 -99.9 -99.99 -9.99
2018/08/18 21:30 EDT    6.36 -99.99 -999 -999 -999 -99.9 -99.9 -999.9 -9.9 -9.999 -99.9 -99.99 -9.99
2018/08/18 21:36 EDT    6.28 -99.99 -999 -999 -999 -99.9 -99.9 -999.9 -9.9 -9.999 -99.9 -99.99 -9.99
2018/08/18 21:42 EDT    6.20 -99.99 -999 -999 -999 -99.9 -99.9 -999.9 -9.9 -9.999 -99.9 -99.99 -9.99
2018/08/18 21:48 EDT    6.11 -99.99 -999 -999 -999 -99.9 -99.9 -999.9 -9.9 -9.999 -99.9 -99.99 -9.99
2018/08/18 21:54 EDT    6.02 -99.99 -999 -999 -999 -99.9 -99.9 -999.9 -9.9 -9.999 -99.9 -99.99 -9.99
2018/08/18 22:00 EDT    5.93 -99.99 -999 -999 -999 -99.9 -99.9 -999.9 -9.9 -9.999 -99.9 -99.99 -9.99
2018/08/18 22:06 EDT    5.84 -99.99 -999 -999 -999 -99.9 -99.9 -999.9 -9.9 -9.999 -99.9 -99.99 -9.99
2018/08/18 22:12 EDT    5.74 -99.99 -999 -999 -999 -99.9 -99.9 -999.9 -9.9 -9.999 -99.9 -99.99 -9.99
2018/08/18 22:18 EDT    5.65 -99.99 -999 -999 -999 -99.9 -99.9 -999.9 -9.9 -9.999 -99.9 -99.99 -9.99
2018/08/18 22:24 EDT    5.55 -99.99 -999 -999 -999 -99.9 -99.9 -999.9 -9.9 -9.999 -99.9 -99.99 -9.99
2018/08/18 22:30 EDT    5.45 -99.99 -999 -999 -999 -99.9 -99.9 -999.9 -9.9 -9.999 -99.9 -99.99 -9.99
2018/08/18 22:36 EDT    5.35 -99.99 -999 -999 -999 -99.9 -99.9 -999.9 -9.9 -9.999 -99.9 -99.99 -9.99
2018/08/18 22:42 EDT    5.25 -99.99 -999 -999 -999 -99.9 -99.9 -999.9 -9.9 -9.999 -99.9 -99.99 -9.99
2018/08/18 22:48 EDT    5.15 -99.99 -999 -999 -999 -99.9 -99.9 -999.9 -9.9 -9.999 -99.9 -99.99 -9.99
2018/08/18 22:54 EDT    5.05 -99.99 -999 -999 -999 -99.9 -99.9 -999.9 -9.9 -9.999 -99.9 -99.99 -9.99
2018/08/18 23:00 EDT    4.95 -99.99 -999 -999 -999 -99.9 -99.9 -999.9 -9.9 -9.999 -99.9 -99.99 -9.99
2018/08/18 23:06 EDT    4.84 -99.99 -999 -999 -999 -99.9 -99.9 -999.9 -9.9 -9.999 -99.9 -99.99 -9.99
2018/08/18 23:12 EDT    4.74 -99.99 -999 -999 -999 -99.9 -99.9 -999.9 -9.9 -9.999 -99.9 -99.99 -9.99
2018/08/18 23:18 EDT    4.64 -99.99 -999 -999 -999 -99.9 -99.9 -999.9 -9.9 -9.999 -99.9 -99.99 -9.99
2018/08/18 23:24 EDT    4.53 -99.99 -999 -999 -999 -99.9 -99.9 -999.9 -9.9 -9.999 -99.9 -99.99 -9.99
2018/08/18 23:30 EDT    4.43 -99.99 -999 -999 -999 -99.9 -99.9 -999.9 -9.9 -9.999 -99.9 -99.99 -9.99
2018/08/18 23:36 EDT    4.32 -99.99 -999 -999 -999 -99.9 -99.9 -999.9 -9.9 -9.999 -99.9 -99.99 -9.99
2018/08/18 23:42 EDT    4.21 -99.99 -999 -999 -999 -99.9 -99.9 -999.9 -9.9 -9.999 -99.9 -99.99 -9.99
2018/08/18 23:48 EDT    4.11 -99.99 -999 -999 -999 -99.9 -99.9 -999.9 -9.9 -9.999 -99.9 -99.99 -9.99
2018/08/18 23:54 EDT    4.00 -99.99 -999 -999 -999 -99.9 -99.9 -999.9 -9.9 -9.999 -99.9 -99.99 -9.99
2018/08/19 00:00 EDT    3.89 -99.99 -999 -999 -999 -99.9 -99.9 -999.9 -9.9 -9.999 -99.9 -99.99 -9.99
2018/08/19 00:06 EDT    3.78 -99.99 -999 -999 -999 -99.9 -99.9 -999.9 -9.9 -9.999 -99.9 -99.99 -9.99
2018/08/19 00:12 EDT    3.67 -99.99 -999 -999 -999 -99.9 -99.9 -999.9 -9.9 -9.999 -99.9 -99.99 -9.99
2018/08/19 00:18 EDT    3.56 -99.99 -999 -999 -999 -99.9 -99.9 -999.9 -9.9 -9.999 -99.9 -99.99 -9.99
2018/08/19 00:24 EDT    3.45 -99.99 -999 -999 -999 -99.9 -99.9 -999.9 -9.9 -9.999 -99.9 -99.99 -9.99
2018/08/19 00:30 EDT    3.34 -99.99 -999 -999 -999 -99.9 -99.9 -999.9 -9.9 -9.999 -99.9 -99.99 -9.99
2018/08/19 00:36 EDT    3.23 -99.99 -999 -999 -999 -99.9 -99.9 -999.9 -9.9 -9.999 -99.9 -99.99 -9.99
2018/08/19 00:42 EDT    3.12 -99.99 -999 -999 -999 -99.9 -99.9 -999.9 -9.9 -9.999 -99.9 -99.99 -9.99
2018/08/19 00:48 EDT    3.00 -99.99 -999 -999 -999 -99.9 -99.9 -999.9 -9.9 -9.999 -99.9 -99.99 -9.99
2018/08/19 00:54 EDT    2.89 -99.99 -999 -999 -999 -99.9 -99.9 -999.9 -9.9 -9.999 -99.9 -99.99 -9.99
2018/08/19 01:00 EDT    2.77 -99.99 -999 -999 -999 -99.9 -99.9 -999.9 -9.9 -9.999 -99.9 -99.99 -9.99
2018/08/19 01:06 EDT    2.65 -99.99 -999 -999 -999 -99.9 -99.9 -999.9 -9.9 -9.999 -99.9 -99.99 -9.99
2018/08/19 01:12 EDT    2.53 -99.99 -999 -999 -999 -99.9 -99.9 -999.9 -9.9 -9.999 -99.9 -99.99 -9.99
2018/08/19 01:18 EDT    2.40 -99.99 -999 -999 -999 -99.9 -99.9 -999.9 -9.9 -9.999 -99.9 -99.99 -9.99
2018/08/19 01:24 EDT    2.28 -99.99 -999 -999 -999 -99.9 -99.9 -999.9 -9.9 -9.999 -99.9 -99.99 -9.99
2018/08/19 01:30 EDT    2.16 -99.99 -999 -999 -999 -99.9 -99.9 -999.9 -9.9 -9.999 -99.9 -99.99 -9.99
2018/08/19 01:36 EDT    2.03 -99.99 -999 -999 -999 -99.9 -99.9 -999.9 -9.9 -9.999 -99.9 -99.99 -9.99
2018/08/19 01:42 EDT    1.90 -99.99 -999 -999 -999 -99.9 -99.9 -999.9 -9.9 -9.999 -99.9 -99.99 -9.99
2018/08/19 01:48 EDT    1.78 -99.99 -999 -999 -999 -99.9 -99.9 -999.9 -9.9 -9.999 -99.9 -99.99 -9.99

Revised: 10/15/2013
NOAA / National Ocean Service
Web site owner: Center for Operational Oceanographic Products and Services